Stations météo

réclame
Mon MeteoGroup
Pajares/Valgrande, Espagne (8031): Température de l'air & dewpoint: 15.01.2019 17:00:00 - 21.01.2019 17:00:00 (CET)Pajares/Valgrande, Espagne (8031): Vitesse du vent & gusts: 15.01.2019 17:00:00 - 21.01.2019 17:00:00 (CET)Pajares/Valgrande, Espagne (8031): Direction du vent: 15.01.2019 17:00:00 - 21.01.2019 17:00:00 (CET)Pajares/Valgrande, Espagne (8031): Quantités de précipitations: 15.01.2019 17:00:00 - 21.01.2019 17:00:00 (CET)
Date & Time tt [°C] td [°C] ff [km/h] ff [knt] fx [km/h] fx [knt] dd rr [mm]
21.01.2019 17:00:00 -1,1 -2,2 0 0 0 0 N 0,1
21.01.2019 16:00:00 -1,0 -2,2 0 0 1 0 N 0,0
21.01.2019 15:00:00 -1,0 -2,2 0 0 1 1 W 0,0
21.01.2019 14:00:00 -1,1 -2,2 0 0 1 0 WNW 0,0
21.01.2019 13:00:00 -1,3 -2,5 0 0 1 1 WNW -
21.01.2019 12:00:00 -1,5 -2,7 1 0 2 1 WNW 0,0
21.01.2019 11:00:00 -1,5 -2,7 1 0 3 2 WNW 0,0
21.01.2019 10:00:00 -1,4 -2,5 1 1 2 1 WNW 0,0
21.01.2019 09:00:00 -1,4 -2,5 1 1 2 1 WNW 0,0
21.01.2019 08:00:00 -1,2 -2,2 1 0 2 1 WNW 0,0
21.01.2019 07:00:00 -1,2 -2,2 0 0 3 1 WNW -
21.01.2019 06:00:00 -1,1 -2,2 1 1 3 2 WNW 0,0
21.01.2019 05:00:00 -1,4 -2,5 1 1 4 2 WNW 0,0
21.01.2019 04:00:00 -1,6 -2,7 1 1 5 3 WNW 0,0
21.01.2019 03:00:00 -1,3 -2,5 2 1 4 2 WNW 0,0
21.01.2019 02:00:00 -1,3 -2,5 0 0 5 3 WNW 0,0
21.01.2019 01:00:00 -1,2 -2,2 3 2 5 3 NW -
21.01.2019 00:00:00 -1,1 -2,2 4 2 8 4 WNW 0,0
20.01.2019 23:00:00 -0,7 -2,0 3 2 8 5 WNW 0,0
20.01.2019 22:00:00 -0,9 -2,0 4 2 8 5 WNW 0,0
20.01.2019 21:00:00 -0,9 -2,0 5 3 11 6 WNW 0,0
20.01.2019 20:00:00 -0,6 -1,7 5 3 16 8 WNW 0,0
20.01.2019 19:00:00 -0,5 -1,7 8 4 13 7 WNW -
20.01.2019 18:00:00 -0,9 -2,0 6 4 13 7 WNW 0,0
20.01.2019 17:00:00 -0,8 -2,0 5 3 11 6 WNW 0,0
20.01.2019 16:00:00 -0,9 -2,0 4 2 14 7 WNW 0,0
20.01.2019 15:00:00 -0,9 -2,0 6 3 14 8 WNW 0,0
20.01.2019 14:00:00 -1,1 -2,2 10 5 17 9 WNW 0,0
20.01.2019 13:00:00 -0,1 -1,2 7 4 17 9 NNW -
20.01.2019 12:00:00 -0,6 -1,7 12 6 27 15 NW 0,0
20.01.2019 11:00:00 -0,4 -1,4 16 8 26 14 NW 0,0
20.01.2019 10:00:00 -1,1 -2,2 14 8 29 16 NW 0,0
20.01.2019 09:00:00 -0,9 -2,0 15 8 33 18 NW 0,0
20.01.2019 08:00:00 -1,0 -2,2 17 9 34 18 NW 0,0
20.01.2019 07:00:00 -1,0 -2,2 17 9 37 20 NW -
20.01.2019 06:00:00 -1,0 -2,2 19 10 49 27 NW 0,0
20.01.2019 05:00:00 -1,0 -2,2 21 11 47 26 NW 0,0
20.01.2019 04:00:00 -0,6 -1,7 23 12 43 23 NW 0,0
20.01.2019 03:00:00 -0,6 -1,7 20 11 43 23 NW 0,0
20.01.2019 02:00:00 -0,6 -1,7 22 12 59 32 NW 0,2
20.01.2019 01:00:00 0,1 -1,0 23 12 49 26 NW -
20.01.2019 00:00:00 0,1 -1,0 18 10 52 28 NW 0,4
19.01.2019 23:00:00 0,4 -0,7 23 12 46 25 NW 1,4
19.01.2019 22:00:00 0,7 -0,5 8 4 17 9 NNW 0,3
19.01.2019 21:00:00 0,4 -1,0 0 0 6 3 SSW 0,0
19.01.2019 20:00:00 -0,1 -2,0 5 3 24 13 ENE 0,0
19.01.2019 19:00:00 -0,8 -2,7 21 11 34 19 S -
19.01.2019 18:00:00 -1,8 -3,6 26 14 42 23 SSW 0,0
19.01.2019 17:00:00 -1,5 -3,3 22 12 38 21 S 0,0
19.01.2019 16:00:00 -1,8 -3,6 27 15 45 24 SSE 0,0
19.01.2019 15:00:00 -1,8 -3,6 32 18 45 24 S 0,0
19.01.2019 14:00:00 -1,7 -3,3 26 14 48 26 S 0,0
19.01.2019 13:00:00 -1,4 -3,0 32 17 46 25 S -
19.01.2019 12:00:00 -1,7 -3,3 29 15 45 24 S 0,0
19.01.2019 11:00:00 -1,2 -3,0 24 13 48 26 SSE 0,0
19.01.2019 10:00:00 -1,0 -3,0 28 15 44 24 SSE 0,0
19.01.2019 09:00:00 -1,5 -3,9 32 18 44 24 SSE 0,0
19.01.2019 08:00:00 -1,2 -3,9 23 12 35 19 SSE 0,0
19.01.2019 07:00:00 -0,3 -3,6 6 3 16 9 SSW -
19.01.2019 06:00:00 -0,5 -3,9 6 3 16 9 SSW 0,0
19.01.2019 05:00:00 -0,1 -3,9 7 4 21 11 SW 0,0
19.01.2019 04:00:00 0,0 -3,3 3 2 18 10 S 0,0
19.01.2019 03:00:00 -1,1 -3,6 4 2 10 5 SSW 0,0
19.01.2019 02:00:00 -1,3 -3,3 6 3 10 6 SSW 0,0
19.01.2019 01:00:00 -0,7 -2,5 3 2 10 5 SSW -
19.01.2019 00:00:00 0,1 -1,4 1 1 5 3 SSW 0,0
18.01.2019 23:00:00 0,3 -1,4 0 0 5 3 N 0,0
18.01.2019 22:00:00 0,4 -1,7 1 1 10 6 S 0,0
18.01.2019 21:00:00 0,6 -1,7 4 2 11 6 NNE 0,0
18.01.2019 20:00:00 0,2 -1,7 0 0 8 5 NNW 0,0
18.01.2019 19:00:00 0,2 -2,0 0 0 6 3 SSE -
18.01.2019 18:00:00 0,1 -2,0 5 3 7 4 SSW 0,2
18.01.2019 17:00:00 0,7 -1,4 0 0 5 3 N 1,1
18.01.2019 16:00:00 1,0 -1,2 1 0 11 6 NE 0,3
18.01.2019 15:00:00 0,7 -1,4 1 0 11 6 E 0,0
18.01.2019 14:00:00 -0,2 -2,2 10 5 18 10 S 0,0
18.01.2019 13:00:00 -0,6 -2,5 8 4 15 8 S -
18.01.2019 12:00:00 -0,6 -2,5 6 3 17 9 S 0,1
18.01.2019 11:00:00 -1,6 -3,3 9 5 27 14 SE 0,0
18.01.2019 10:00:00 -2,2 -3,6 10 6 22 12 SSE 0,0
18.01.2019 09:00:00 -2,5 -3,9 0 0 4 2 SSW 0,0
18.01.2019 08:00:00 -2,7 -4,2 0 0 13 7 SSW 0,0
18.01.2019 07:00:00 -2,6 -4,2 9 5 14 7 S -
18.01.2019 06:00:00 -3,1 -4,5 3 2 11 6 SSW 0,0
18.01.2019 05:00:00 -3,0 -4,5 4 2 11 6 S 0,0
18.01.2019 04:00:00 -2,8 -4,5 9 5 12 7 S 0,0
18.01.2019 03:00:00 -4,4 -6,0 6 3 17 9 S 0,0
18.01.2019 02:00:00 -4,5 -6,0 4 2 6 4 SSW 0,0
18.01.2019 01:00:00 -4,9 -6,4 2 1 6 3 SW -
18.01.2019 00:00:00 -4,8 -6,0 4 2 9 5 SSW 0,0
17.01.2019 23:00:00 -4,7 -6,0 4 2 5 3 S 0,0
17.01.2019 22:00:00 -2,3 -3,3 0 0 11 6 W 0,0
17.01.2019 21:00:00 -1,7 -3,0 7 4 19 10 NW 0,0
17.01.2019 20:00:00 -1,6 -3,0 9 5 22 12 NW 0,0
17.01.2019 19:00:00 -1,6 -2,7 9 5 23 12 NW -
17.01.2019 18:00:00 -1,1 -2,5 8 5 21 12 NW 0,0
17.01.2019 17:00:00 -1,1 -2,5 10 5 20 11 WNW 0,3
17.01.2019 16:00:00 -0,9 -2,0 8 4 16 9 WNW 0,2
17.01.2019 15:00:00 -1,0 -2,2 5 3 26 14 NW 0,3
17.01.2019 14:00:00 -1,2 -2,2 10 5 16 8 NW 0,1
17.01.2019 13:00:00 -1,5 -2,7 5 3 9 5 WNW -
17.01.2019 12:00:00 -1,6 -3,0 5 3 16 8 WNW 0,0
17.01.2019 11:00:00 -2,0 -3,0 10 6 17 9 WNW 0,0
17.01.2019 10:00:00 -1,8 -3,0 9 5 24 13 NW 0,0
17.01.2019 09:00:00 -1,8 -3,0 9 5 24 13 NW 0,0
17.01.2019 08:00:00 -1,8 -3,0 11 6 23 12 NW 0,0
17.01.2019 07:00:00 -1,2 -2,2 12 7 24 13 WNW -
17.01.2019 06:00:00 -0,9 -2,0 10 5 27 15 NW 0,0
17.01.2019 05:00:00 -0,7 -2,0 11 6 26 14 NW 0,0
17.01.2019 04:00:00 -0,6 -1,7 10 6 27 14 NW 0,0
17.01.2019 03:00:00 -0,5 -1,7 13 7 33 18 NW 0,0
17.01.2019 02:00:00 -0,2 -1,4 14 7 35 19 NW 0,1
17.01.2019 01:00:00 0,3 -1,0 14 7 29 16 NNW -
17.01.2019 00:00:00 0,7 -0,5 13 7 24 13 NW 0,0
16.01.2019 23:00:00 0,8 -1,2 9 5 21 11 NW 0,0
16.01.2019 22:00:00 1,3 -2,2 9 5 23 12 NW 0,0
16.01.2019 21:00:00 1,4 -2,0 5 3 17 9 NNW 0,0
16.01.2019 20:00:00 1,4 -1,4 8 4 15 8 NNW 0,0
16.01.2019 19:00:00 1,8 -1,4 6 3 14 8 NNW -
16.01.2019 18:00:00 2,2 -1,4 6 3 17 9 NW 0,0
16.01.2019 17:00:00 2,8 -2,2 5 3 18 10 NW 0,0
16.01.2019 16:00:00 4,3 -3,0 6 3 14 7 NW 0,0
16.01.2019 15:00:00 4,6 -3,6 3 1 8 5 N 0,0
16.01.2019 14:00:00 4,5 -4,8 4 2 9 5 NNE 0,0
16.01.2019 13:00:00 5,4 -6,7 6 3 16 8 WNW -
16.01.2019 12:00:00 6,3 -6,4 12 6 21 12 S 0,0
16.01.2019 11:00:00 5,8 -6,7 5 3 19 10 WSW 0,0
16.01.2019 10:00:00 3,5 -7,8 11 6 21 11 S 0,0
16.01.2019 09:00:00 3,1 -8,6 15 8 24 13 S 0,0
16.01.2019 08:00:00 4,4 -8,2 13 7 23 12 S 0,0
16.01.2019 07:00:00 4,0 -8,6 14 7 20 11 SSW -
16.01.2019 06:00:00 4,5 -9,4 12 7 23 13 SSE 0,0
16.01.2019 05:00:00 4,1 -10,8 14 8 28 15 S 0,0
16.01.2019 04:00:00 5,0 -10,3 15 8 26 14 S 0,0
16.01.2019 03:00:00 4,4 -10,8 14 8 19 11 S 0,0
16.01.2019 02:00:00 4,6 -11,2 16 9 21 11 S 0,0
16.01.2019 01:00:00 4,8 -11,2 14 8 18 10 S -
16.01.2019 00:00:00 4,6 -12,8 11 6 18 10 S 0,0
15.01.2019 23:00:00 5,6 -11,2 13 7 21 11 S 0,0
15.01.2019 22:00:00 5,6 -11,2 16 9 21 11 S 0,0
15.01.2019 21:00:00 5,9 -10,8 16 9 21 12 S 0,0
15.01.2019 20:00:00 5,5 -12,2 10 6 19 11 SSW 0,0
15.01.2019 19:00:00 6,5 -11,2 14 8 19 10 S -
15.01.2019 18:00:00 7,0 -10,8 14 8 18 10 S 0,0
15.01.2019 17:00:00 6,4 -10,3 9 5 15 8 S 0,0

tt = Température de l'air
td = dewpoint
ff = Vitesse du vent
fx = gusts
dd = Direction du vent
rr = Quantités de précipitations

stations d'obs. à proximité